Time;durP1;ratioP1;P1;durP2;ratioP2;P2;SDS_P1;SDS_P2;PMS_P1;PMS_P2;Temp;Humidity;BMP_temperature;BMP_pressure;BME280_temperature;BME280_humidity;BME280_pressure;Samples;Min_cycle;Max_cycle;Signal;HPM_P1;HPM_P2
2023/08/13 00:01:24;;;;;;;;;1.00;1.00;;;;;;;;4845099;29;45436;-68
2023/08/13 00:03:49;;;;;;;;;1.50;0.50;;;;;;;;4851573;29;45347;-67
2023/08/13 00:06:15;;;;;;;;;1.00;1.00;;;;;;;;4865469;29;45283;-67
2023/08/13 00:08:40;;;;;;;;;4.00;3.00;;;;;;;;4865380;29;45217;-68
2023/08/13 00:11:14;;;;;;;;;2.00;1.00;;;;;;;;4847738;29;45457;-68
2023/08/13 00:13:39;;;;;;;;;1.00;1.00;;;;;;;;4846170;29;46260;-68
2023/08/13 00:16:05;;;;;;;;;1.25;1.00;;;;;;;;4859497;29;45470;-68
2023/08/13 00:18:32;;;;;;;;;2.00;0.75;;;;;;;;4865588;29;45612;-68
2023/08/13 00:20:57;;;;;;;;;1.00;1.00;;;;;;;;4864316;29;45431;-68
2023/08/13 00:23:22;;;;;;;;;1.00;1.00;;;;;;;;4864590;29;46322;-68
2023/08/13 00:25:47;;;;;;;;;2.25;1.00;;;;;;;;4865271;29;45309;-68
2023/08/13 00:28:13;;;;;;;;;1.75;1.00;;;;;;;;4865253;29;45350;-68
2023/08/13 00:30:38;;;;;;;;;5.67;4.33;;;;;;;;4865110;29;45555;-68
2023/08/13 00:33:03;;;;;;;;;3.33;1.00;;;;;;;;4845395;29;46278;-68
2023/08/13 00:35:28;;;;;;;;;1.25;1.00;;;;;;;;4846017;29;45397;-68
2023/08/13 00:37:54;;;;;;;;;3.00;1.67;;;;;;;;4846485;29;45537;-68
2023/08/13 00:40:19;;;;;;;;;3.00;1.00;;;;;;;;4845976;29;45407;-68
2023/08/13 00:42:44;;;;;;;;;4.00;1.67;;;;;;;;4846284;29;46351;-68
2023/08/13 00:45:10;;;;;;;;;1.00;1.00;;;;;;;;4845770;29;45440;-68
2023/08/13 00:47:35;;;;;;;;;3.00;1.00;;;;;;;;4845130;29;45354;-68
2023/08/13 00:50:02;;;;;;;;;1.00;1.00;;;;;;;;4855242;29;45510;-68
2023/08/13 00:52:27;;;;;;;;;3.25;2.00;;;;;;;;4850807;29;45552;-68
2023/08/13 00:54:52;;;;;;;;;2.25;1.00;;;;;;;;4846007;29;45450;-68
2023/08/13 00:57:17;;;;;;;;;6.00;1.00;;;;;;;;4846456;29;45365;-68
2023/08/13 00:59:43;;;;;;;;;3.00;1.00;;;;;;;;4845003;29;45496;-68
2023/08/13 01:02:08;;;;;;;;;1.00;1.00;;;;;;;;4845108;29;45661;-68
2023/08/13 01:04:33;;;;;;;;;2.75;1.25;;;;;;;;4844650;29;45302;-68
2023/08/13 01:06:59;;;;;;;;;2.00;2.00;;;;;;;;4845518;29;45609;-68
2023/08/13 01:09:40;;;;;;;;;0.50;0.50;;;;;;;;4846034;29;45573;-68
2023/08/13 01:12:05;;;;;;;;;2.00;1.00;;;;;;;;4844468;29;46753;-68
2023/08/13 01:14:40;;;;;;;;;4.75;2.75;;;;;;;;4845134;29;45592;-68
2023/08/13 01:17:06;;;;;;;;;2.00;2.00;;;;;;;;4846057;29;45420;-68
2023/08/13 01:19:32;;;;;;;;;3.00;3.00;;;;;;;;4846141;29;45432;-68
2023/08/13 01:21:57;;;;;;;;;4.00;3.00;;;;;;;;4845289;29;46703;-68
2023/08/13 01:24:22;;;;;;;;;1.33;0.00;;;;;;;;4845917;29;45459;-67
2023/08/13 01:26:55;;;;;;;;;1.00;1.00;;;;;;;;4845482;29;45345;-67
2023/08/13 01:29:25;;;;;;;;;4.00;1.00;;;;;;;;4844491;29;45470;-68
2023/08/13 01:31:54;;;;;;;;;7.00;2.50;;;;;;;;4844881;29;46838;-68
2023/08/13 01:34:20;;;;;;;;;2.00;2.00;;;;;;;;4844571;29;45507;-68
2023/08/13 01:36:45;;;;;;;;;3.25;1.50;;;;;;;;4844573;29;45444;-68
2023/08/13 01:39:11;;;;;;;;;3.00;2.00;;;;;;;;4850964;29;45590;-68
2023/08/13 01:42:03;;;;;;;;;4.25;2.25;;;;;;;;4844681;29;46346;-68
2023/08/13 01:44:28;;;;;;;;;1.75;1.75;;;;;;;;4842468;29;45210;-67
2023/08/13 01:46:53;;;;;;;;;2.25;2.25;;;;;;;;4844467;29;45462;-67
2023/08/13 01:49:19;;;;;;;;;2.25;2.25;;;;;;;;4844605;29;45497;-68
2023/08/13 01:51:44;;;;;;;;;3.00;1.75;;;;;;;;4844384;29;46183;-68
2023/08/13 01:54:09;;;;;;;;;2.00;2.00;;;;;;;;4845202;29;45443;-68
2023/08/13 01:56:35;;;;;;;;;2.50;2.25;;;;;;;;4844835;29;45560;-68
2023/08/13 01:59:00;;;;;;;;;2.75;2.00;;;;;;;;4845443;29;45436;-68
2023/08/13 02:01:25;;;;;;;;;0.25;0.25;;;;;;;;4843939;29;47518;-68
2023/08/13 02:03:50;;;;;;;;;5.75;2.00;;;;;;;;4844660;29;45238;-68
2023/08/13 02:06:16;;;;;;;;;1.75;0.75;;;;;;;;4844167;29;45315;-68
2023/08/13 02:08:41;;;;;;;;;1.50;1.50;;;;;;;;4846024;29;45444;-67
2023/08/13 02:11:07;;;;;;;;;2.00;2.00;;;;;;;;4848960;29;45423;-68
2023/08/13 02:13:32;;;;;;;;;3.00;1.50;;;;;;;;4845129;29;45551;-68
2023/08/13 02:16:03;;;;;;;;;4.00;4.00;;;;;;;;4845278;29;45379;-68
2023/08/13 02:18:29;;;;;;;;;3.00;3.00;;;;;;;;4845271;29;45274;-68
2023/08/13 02:20:54;;;;;;;;;3.00;1.50;;;;;;;;4857529;29;46065;-68
2023/08/13 02:23:19;;;;;;;;;2.67;2.67;;;;;;;;4863420;29;45446;-68
2023/08/13 02:25:44;;;;;;;;;3.00;1.00;;;;;;;;4861380;29;45504;-68
2023/08/13 02:28:09;;;;;;;;;3.33;2.00;;;;;;;;4861438;29;45637;-68
2023/08/13 02:30:36;;;;;;;;;6.00;2.00;;;;;;;;4863567;29;46343;-68
2023/08/13 02:33:01;;;;;;;;;2.00;2.00;;;;;;;;4851218;29;45469;-68
2023/08/13 02:35:26;;;;;;;;;8.50;3.00;;;;;;;;4843925;29;45788;-67
2023/08/13 02:37:51;;;;;;;;;2.25;2.00;;;;;;;;4844843;29;45444;-67
2023/08/13 02:40:17;;;;;;;;;3.00;2.00;;;;;;;;4843401;29;45542;-66
2023/08/13 02:42:42;;;;;;;;;2.75;1.25;;;;;;;;4844221;29;45328;-67
2023/08/13 02:45:07;;;;;;;;;5.75;3.00;;;;;;;;4852819;29;45360;-66
2023/08/13 02:47:32;;;;;;;;;2.67;2.67;;;;;;;;4844460;29;45312;-67
2023/08/13 02:49:57;;;;;;;;;2.50;1.00;;;;;;;;4842734;29;45791;-67
2023/08/13 02:52:23;;;;;;;;;4.25;2.25;;;;;;;;4843249;29;45918;-67
2023/08/13 02:54:48;;;;;;;;;2.00;2.00;;;;;;;;4844100;29;45307;-67
2023/08/13 02:57:13;;;;;;;;;1.00;1.00;;;;;;;;4844738;29;45739;-67
2023/08/13 02:59:38;;;;;;;;;3.00;2.00;;;;;;;;4843179;29;46659;-67
2023/08/13 03:02:03;;;;;;;;;4.33;2.67;;;;;;;;4851555;29;45411;-67
2023/08/13 03:04:29;;;;;;;;;4.00;4.00;;;;;;;;4843616;29;45304;-67
2023/08/13 03:06:54;;;;;;;;;2.33;2.33;;;;;;;;4844066;29;45294;-67
2023/08/13 03:09:20;;;;;;;;;2.33;2.33;;;;;;;;4843415;29;45368;-67
2023/08/13 03:11:46;;;;;;;;;3.67;2.33;;;;;;;;4842955;29;45412;-67
2023/08/13 03:14:11;;;;;;;;;3.00;2.00;;;;;;;;4843663;29;45622;-67
2023/08/13 03:16:36;;;;;;;;;3.00;3.00;;;;;;;;4844059;29;45367;-67
2023/08/13 03:19:01;;;;;;;;;2.50;1.50;;;;;;;;4862859;29;47167;-66
2023/08/13 03:21:27;;;;;;;;;2.00;0.67;;;;;;;;4849746;29;45363;-67
2023/08/13 03:23:52;;;;;;;;;2.33;2.00;;;;;;;;4844302;29;45380;-66
2023/08/13 03:26:17;;;;;;;;;3.00;2.00;;;;;;;;4842474;29;45535;-66
2023/08/13 03:28:42;;;;;;;;;5.00;3.00;;;;;;;;4844253;29;46470;-67
2023/08/13 03:31:07;;;;;;;;;3.50;1.75;;;;;;;;4843806;29;45361;-67
2023/08/13 03:33:33;;;;;;;;;2.00;2.00;;;;;;;;4850101;29;45625;-67
2023/08/13 03:35:58;;;;;;;;;17.67;13.00;;;;;;;;4845175;29;45240;-67
2023/08/13 03:38:23;;;;;;;;;2.33;1.33;;;;;;;;4846531;29;46628;-66
2023/08/13 03:40:48;;;;;;;;;6.33;2.33;;;;;;;;4846604;29;45378;-67
2023/08/13 03:43:13;;;;;;;;;5.00;2.00;;;;;;;;4846181;29;45424;-67
2023/08/13 03:45:40;;;;;;;;;1.75;1.75;;;;;;;;4846003;29;45517;-67
2023/08/13 03:48:06;;;;;;;;;5.25;4.00;;;;;;;;4847067;29;45476;-66
2023/08/13 03:50:31;;;;;;;;;4.67;2.67;;;;;;;;4850280;29;45398;-67
2023/08/13 03:52:56;;;;;;;;;4.00;2.67;;;;;;;;4846056;29;45449;-66
2023/08/13 03:55:21;;;;;;;;;2.00;2.00;;;;;;;;4845090;29;45481;-67
2023/08/13 03:57:46;;;;;;;;;4.00;3.00;;;;;;;;4846571;29;46813;-68
2023/08/13 04:00:12;;;;;;;;;1.50;1.25;;;;;;;;4846287;29;45363;-67
2023/08/13 04:02:38;;;;;;;;;1.00;1.00;;;;;;;;4846241;29;45337;-66
